Terminal Aerodrome Forecast
Issued by NWS Central Illinois

Home | Current Version | Previous Version | Text Only | Print | Product List | Glossary On
Versions: 1 2 3 4 5 6 7 8 9 10 11 12 13 14 15 16 17 18 19 20 21
000
FTUS43 KILX 292334
TAFPIA
TAF
KPIA 292334Z 3000/3024 09015G25KT P6SM SCT015 OVC050
     FM300300 09014G24KT 4SM -RA BR OVC015
     FM300600 09014G24KT 4SM -RA VCTS OVC008CB
     FM301400 06012KT P6SM VCSH OVC008
     FM301800 VRB06KT P6SM VCTS OVC015CB=

USA.gov is the U.S. government's official web portal to all federal, state and local government web resources and services.